Flight Track Log - Related Links

Times and Time Zones

All times are in EDT time to prevent confusion due to time zone crossing. See the GJS3707 flight status page for this flight to view local times or setup timezone preferences in your user account.

Time Position Orientation Groundspeed Altitude Reporting Facility
EDT Latitude Longitude Course Direction KTS MPH feet Rate Location/Type
Thu 12:02:23 PM 42.0000 -87.9333 270° West 145 167 1,400  Level Chicago TRACON
Thu 12:03:17 PM 42.0333 -87.9667 323° Northwest 181 208 3,400 2,105 Climbing Chicago TRACON
Thu 12:04:17 PM 42.0667 -88.0333 304° West 242 278 5,400 2,168 Climbing Chicago TRACON
Thu 12:05:00 PM 41.9667 -88.4775 270° West  Level FlightAware Approximate
Thu 12:05:52 PM 42.1375 -88.1247 316° Northwest 264 304 9,000  Level Chicago Center
Thu 12:06:00 PM 41.9668 -88.6219 270° West  Level FlightAware Approximate
Thu 12:06:54 PM 42.1286 -88.2461 264° West 274 315 11,800  Level Chicago Center
Thu 12:07:00 PM 41.9667 -88.7663 270° West  Level FlightAware Approximate
Thu 12:07:56 PM 42.1214 -88.3583 265° West 294 338 13,400  Level Chicago Center
Thu 12:08:58 PM 42.1128 -88.4797 265° West 320 368 15,100 1,632 Climbing Chicago Center
Thu 12:10:01 PM 42.1011 -88.6067 263° West 338 389 16,800 1,440 Climbing Chicago Center
Thu 12:11:03 PM 42.0975 -88.7406 268° West 355 409 18,100 1,355 Climbing Chicago Center
Thu 12:12:05 PM 42.0931 -88.8883 268° West 369 425 19,600 1,548 Climbing Chicago Center
Thu 12:13:07 PM 42.0867 -89.0564 267° West 380 437 21,300 1,500 Climbing Chicago Center
Thu 12:14:09 PM 42.0811 -89.2014 267° West 387 445 22,700 1,306 Climbing Chicago Center
Thu 12:15:11 PM 42.0786 -89.3483 269° West 390 449 24,000 1,210 Climbing Chicago Center
Thu 12:16:13 PM 42.0858 -89.4950 274° West 391 450 25,200 1,065 Climbing Chicago Center
Thu 12:17:15 PM 42.0947 -89.6447 275° West 399 459 26,200 1,065 Climbing Chicago Center
Thu 12:18:17 PM 42.1039 -89.8200 274° West 402 463 27,400 1,016 Climbing Chicago Center
Thu 12:19:19 PM 42.1114 -89.9578 274° West 408 470 28,300 919 Climbing Chicago Center
Thu 12:20:21 PM 42.1158 -90.1086 272° West 406 467 29,300 968 Climbing Chicago Center
Thu 12:21:23 PM 42.1194 -90.2581 272° West 403 464 30,300 1,065 Climbing Chicago Center
Thu 12:22:25 PM 42.1239 -90.4378 272° West 400 460 31,500 1,113 Climbing Chicago Center
Thu 12:23:27 PM 42.1294 -90.5836 273° West 394 453 32,600 1,008 Climbing Chicago Center
Thu 12:24:30 PM 42.1550 -90.7200 284° West 379 436 33,600 672 Climbing Chicago Center
Thu 12:25:32 PM 42.2008 -90.8444 296° West 374 430 34,000 194 Climbing Chicago Center
Thu 12:26:34 PM 42.2486 -90.9717 297° West 383 441 34,000  Level Chicago Center
Thu 12:27:36 PM 42.3083 -91.1300 297° West 396 456 34,000  Level Chicago Center
Thu 12:28:38 PM 42.3572 -91.2619 297° West 394 453 34,000  Level Chicago Center
Thu 12:29:40 PM 42.4058 -91.3967 296° West 398 458 34,000  Level Chicago Center
Thu 12:30:42 PM 42.4547 -91.5286 297° West 394 453 34,000  Level Chicago Center
Thu 12:31:44 PM 42.5025 -91.6594 296° West 389 448 34,000  Level Chicago Center
Thu 12:32:46 PM 42.5503 -91.7897 297° West 386 444 34,000  Level Chicago Center
Thu 12:33:48 PM 42.6061 -91.9447 296° West 380 437 34,000  Level Chicago Center
Thu 12:34:50 PM 42.6522 -92.0739 296° West 380 437 34,000  Level Chicago Center
Thu 12:35:52 PM 42.6981 -92.2022 296° West 379 436 34,000  Level Chicago Center
Thu 12:36:52 PM 42.7439 -92.3308 296° West 380 437 34,000  Level Chicago Center
Thu 12:37:54 PM 42.7900 -92.4611 296° West 383 441 34,000  Level Chicago Center
Thu 12:38:56 PM 42.8358 -92.5914 296° West 385 443 34,000  Level Chicago Center
Thu 12:39:42 PM 42.8731 -92.6975 296° West 385 443 34,000  Level Minneapolis Center
Thu 12:39:58 PM 42.8822 -92.7222 297° West 384 442 34,000  Level Chicago Center
Thu 12:40:44 PM 42.9197 -92.8292 296° West 387 445 34,000  Level Minneapolis Center
Thu 12:41:46 PM 42.9656 -92.9600 296° West 386 444 34,000  Level Minneapolis Center
Thu 12:42:48 PM 43.0203 -93.1194 295° West 389 448 34,000  Level Minneapolis Center
Thu 12:43:50 PM 43.0656 -93.2536 295° West 390 449 34,000  Level Minneapolis Center
Thu 12:44:52 PM 43.1044 -93.3922 291° West 394 453 34,000  Level Minneapolis Center
Thu 12:45:54 PM 43.1303 -93.5372 284° West 398 458 34,000  Level Minneapolis Center
Thu 12:46:56 PM 43.1561 -93.6828 284° West 396 456 34,000 48 Level Minneapolis Center
Thu 12:47:58 PM 43.1856 -93.8578 283° West 396 456 34,100  Climbing Minneapolis Center
Thu 12:49:00 PM 43.2108 -94.0053 283° West 400 460 34,000 -48 Descending Minneapolis Center
Thu 12:50:02 PM 43.2358 -94.1525 283° West 399 459 34,000  Level Minneapolis Center
Thu 12:51:04 PM 43.2642 -94.3161 283° West 400 460 34,000  Level Minneapolis Center
Thu 12:52:06 PM 43.2889 -94.4650 283° West 400 460 34,000  Level Minneapolis Center
Thu 12:53:08 PM 43.3142 -94.6136 283° West 401 461 34,000  Level Minneapolis Center
Thu 12:54:11 PM 43.3378 -94.7628 282° West 400 460 34,000  Level Minneapolis Center
Thu 12:55:13 PM 43.3619 -94.9133 282° West 402 463 34,000  Level Minneapolis Center
Thu 12:56:15 PM 43.3914 -95.0906 283° West 399 459 34,000  Level Minneapolis Center
Thu 12:57:17 PM 43.4150 -95.2392 282° West 398 458 34,000  Level Minneapolis Center
Thu 12:58:19 PM 43.4386 -95.3875 282° West 397 457 34,000  Level Minneapolis Center
Thu 12:59:21 PM 43.4622 -95.5336 283° West 395 455 34,000  Level Minneapolis Center
Thu 01:00:26 PM 43.4897 -95.7122 282° West 396 456 34,000  Level Minneapolis Center
Thu 01:01:28 PM 43.5125 -95.8603 282° West 396 456 34,000  Level Minneapolis Center
Thu 01:02:30 PM 43.5347 -96.0089 282° West 394 453 34,000  Level Minneapolis Center
Thu 01:03:33 PM 43.5572 -96.1572 282° West 395 455 34,000  Level Minneapolis Center
Thu 01:04:35 PM 43.5797 -96.3058 282° West 394 453 34,000  Level Minneapolis Center
Thu 01:05:37 PM 43.6022 -96.4556 282° West 397 457 34,000  Level Minneapolis Center
Thu 01:06:39 PM 43.6233 -96.6042 281° West 396 456 34,000  Level Minneapolis Center
Thu 01:07:41 PM 43.6497 -96.7822 282° West 393 452 34,000  Level Minneapolis Center
Thu 01:08:43 PM 43.6611 -96.9328 276° West 394 453 34,000  Level Minneapolis Center
Thu 01:09:45 PM 43.6733 -97.0850 276° West 397 457 34,000  Level Minneapolis Center
Thu 01:10:47 PM 43.6847 -97.2372 276° West 398 458 34,000  Level Minneapolis Center
Thu 01:11:49 PM 43.6961 -97.3878 276° West 395 455 34,000  Level Minneapolis Center
Thu 01:13:04 PM 43.7094 -97.5708 276° West 397 457 34,000  Level Minneapolis Center
Thu 01:14:06 PM 43.7231 -97.7544 276° West 401 461 34,000  Level Minneapolis Center
Thu 01:15:08 PM 43.7339 -97.9069 276° West 401 461 34,000  Level Minneapolis Center
Thu 01:16:10 PM 43.7442 -98.0606 275° West 401 461 34,000  Level Minneapolis Center
Thu 01:17:12 PM 43.7558 -98.2153 276° West 405 466 34,000  Level Minneapolis Center
Thu 01:18:14 PM 43.7658 -98.3719 275° West 409 471 34,000  Level Minneapolis Center
Thu 01:19:16 PM 43.7750 -98.5289 275° West 411 473 34,000  Level Minneapolis Center
Thu 01:20:18 PM 43.7869 -98.7019 276° West 409 471 34,000  Level Minneapolis Center
Thu 01:21:20 PM 43.7969 -98.8589 275° West 409 471 34,000  Level Minneapolis Center
Thu 01:22:22 PM 43.8067 -99.0156 275° West 408 470 34,000  Level Minneapolis Center
Thu 01:23:24 PM 43.8150 -99.1728 274° West 408 470 34,000  Level Minneapolis Center
Thu 01:24:26 PM 43.8253 -99.3603 274° West 407 468 34,000  Level Minneapolis Center
Thu 01:25:28 PM 43.8350 -99.5169 275° West 408 470 34,000  Level Minneapolis Center
Thu 01:26:30 PM 43.8431 -99.6744 274° West 408 470 34,000  Level Minneapolis Center
Thu 01:27:33 PM 43.8525 -99.8331 275° West 410 472 34,000  Level Minneapolis Center
Thu 01:28:35 PM 43.8611 -99.9922 274° West 412 474 34,000  Level Minneapolis Center
Thu 01:29:37 PM 43.8689 -100.1503 274° West 411 473 34,000  Level Minneapolis Center
Thu 01:30:39 PM 43.8767 -100.3414 273° West 413 475 34,000  Level Minneapolis Center
Thu 01:31:41 PM 43.8850 -100.5008 274° West 414 476 34,000  Level Minneapolis Center
Thu 01:32:43 PM 43.8931 -100.6628 274° West 416 479 34,000  Level Minneapolis Center
Thu 01:33:45 PM 43.8997 -100.8233 273° West 416 479 34,000  Level Minneapolis Center
Thu 01:34:47 PM 43.9072 -100.9833 274° West 416 479 34,000  Level Minneapolis Center
Thu 01:35:49 PM 43.9133 -101.1458 272° West 420 483 34,000  Level Minneapolis Center
Thu 01:36:51 PM 43.9194 -101.3047 273° West 415 478 34,000  Level Minneapolis Center
Thu 01:37:00 PM 43.9132 -101.2472 272° West  Level FlightAware Approximate
Thu 01:37:53 PM 43.9242 -101.4944 272° West 412 474 34,000  Level Minneapolis Center
Thu 01:39:25 PM 43.9361 -101.7239 274° West 420 483 34,000  Level Denver Center
Thu 01:40:27 PM 43.9372 -101.8814 271° West 411 473 34,000  Level Denver Center
Thu 01:41:29 PM 43.9419 -102.0428 272° West 415 478 34,000  Level Denver Center
Thu 01:42:31 PM 43.9497 -102.2375 273° West 419 482 34,000  Level Denver Center
Thu 01:43:33 PM 43.9558 -102.4025 273° West 424 488 34,000  Level Denver Center
Thu 01:44:35 PM 43.9639 -102.5656 274° West 425 489 34,000  Level Denver Center
Thu 01:45:37 PM 43.9681 -102.7275 272° West 423 487 34,000  Level Denver Center
Thu 01:46:39 PM 43.9742 -102.8981 273° West 418 481 34,000  Level Denver Center
Thu 01:47:41 PM 43.9778 -103.0753 272° West 415 478 34,000  Level Denver Center
Thu 01:48:43 PM 43.9808 -103.2283 272° West 415 478 34,000  Level Denver Center
Thu 01:49:45 PM 43.9839 -103.4050 271° West 412 474 34,000  Level Denver Center
Thu 01:50:47 PM 43.9861 -103.5572 271° West 412 474 34,000  Level Denver Center
Thu 01:51:49 PM 43.9889 -103.7092 272° West 412 474 34,000  Level Denver Center
Thu 01:52:51 PM 43.9925 -103.8883 272° West 416 479 34,000  Level Denver Center
Thu 01:53:54 PM 43.9936 -104.0394 271° West 413 475 34,000  Level Denver Center
Thu 01:54:56 PM 43.9961 -104.2169 271° West 414 476 34,000  Level Denver Center
Thu 01:55:58 PM 43.9972 -104.3703 271° West 415 478 34,000  Level Denver Center
Thu 01:57:00 PM 43.9994 -104.5483 271° West 415 478 34,000  Level Denver Center
Thu 01:58:02 PM 44.0014 -104.6994 271° West 412 474 34,000  Level Denver Center
Thu 01:59:04 PM 44.0022 -104.8772 270° West 413 475 34,000  Level Denver Center
Thu 02:00:06 PM 44.0031 -105.0289 270° West 413 475 34,000  Level Denver Center
Thu 02:01:08 PM 44.0039 -105.2067 270° West 413 475 34,000  Level Denver Center
Thu 02:02:10 PM 44.0039 -105.3608 270° West 417 480 34,000  Level Denver Center
Thu 02:03:12 PM 44.0047 -105.5392 270° West 416 479 34,000  Level Denver Center
Thu 02:04:14 PM 44.0044 -105.6906 270° West 412 474 34,000  Level Denver Center
Thu 02:05:16 PM 44.0036 -105.8697 270° West 416 479 34,000  Level Denver Center
Thu 02:06:18 PM 44.0036 -106.0228 270° West 415 478 34,000  Level Denver Center
Thu 02:07:20 PM 44.0025 -106.2025 270° West 417 480 34,000  Level Denver Center
Thu 02:07:48 PM 44.0008 -106.2633 268° West 417 480 34,000  Level Salt Lake Center
Thu 02:08:50 PM 43.9986 -106.4422 269° West 415 478 34,000  Level Salt Lake Center
Thu 02:09:24 PM 44.0025 -106.5350 273° West 418 481 34,000  Level Denver Center
Thu 02:10:26 PM 44.0083 -106.6892 273° West 419 482 34,000  Level Denver Center
Thu 02:10:54 PM 44.0119 -106.7744 273° West 414 476 34,000  Level Salt Lake Center
Thu 02:11:56 PM 44.0178 -106.9283 273° West 415 478 34,000  Level Salt Lake Center
Thu 02:12:31 PM 44.0219 -107.0311 273° West 411 473 34,000  Level Denver Center
Thu 02:13:33 PM 44.0278 -107.1839 273° West 413 475 34,000  Level Denver Center
Thu 02:14:00 PM 44.0300 -107.2619 272° West 417 480 34,000  Level Salt Lake Center
Thu 02:15:02 PM 44.0344 -107.4181 272° West 420 483 34,000  Level Salt Lake Center
Thu 02:16:04 PM 44.0394 -107.5972 272° West 415 478 34,000  Level Salt Lake Center
Thu 02:17:06 PM 44.0453 -107.7506 273° West 414 476 34,000  Level Salt Lake Center
Thu 02:18:08 PM 44.0500 -107.9322 272° West 418 481 34,000  Level Salt Lake Center
Thu 02:19:10 PM 44.0533 -108.0850 272° West 414 476 34,000  Level Salt Lake Center
Thu 02:20:12 PM 44.0575 -108.2414 272° West 420 483 34,000  Level Salt Lake Center
Thu 02:21:14 PM 44.0628 -108.4242 272° West 422 486 34,000  Level Salt Lake Center
Thu 02:22:16 PM 44.0661 -108.5792 272° West 420 483 34,000  Level Salt Lake Center
Thu 02:23:18 PM 44.0706 -108.7619 272° West 423 487 34,000  Level Salt Lake Center
Thu 02:24:19 PM 44.0739 -108.9150 272° West 418 481 34,000  Level Salt Lake Center
Thu 02:25:22 PM 44.0781 -109.0969 272° West 420 483 34,000  Level Salt Lake Center
Thu 02:26:23 PM 44.0789 -109.2506 270° West 417 480 34,000  Level Salt Lake Center
Thu 02:27:25 PM 44.0825 -109.4342 272° West 421 484 34,000  Level Salt Lake Center
Thu 02:28:27 PM 44.0844 -109.5853 271° West 416 479 34,000  Level Salt Lake Center
Thu 02:29:29 PM 44.0867 -109.7672 271° West 420 483 34,000  Level Salt Lake Center
Thu 02:30:31 PM 44.0886 -109.9222 271° West 419 482 34,000  Level Salt Lake Center
Thu 02:31:33 PM 44.0900 -110.0769 271° West 418 481 34,000  Level Salt Lake Center
Thu 02:32:35 PM 44.0922 -110.2561 271° West 416 479 34,000  Level Salt Lake Center
Thu 02:33:37 PM 44.0928 -110.4072 270° West 411 473 34,000  Level Salt Lake Center
Thu 02:34:38 PM 44.0942 -110.5836 271° West 409 471 34,000  Level Salt Lake Center
Thu 02:35:40 PM 44.0925 -110.7331 269° West 406 467 34,000  Level Salt Lake Center
Thu 02:36:42 PM 44.0939 -110.9047 271° West 399 459 34,000  Level Salt Lake Center
Thu 02:37:44 PM 44.0939 -111.0525 270° West 398 458 34,000  Level Salt Lake Center
Thu 02:38:46 PM 44.0939 -111.2006 270° West 398 458 34,000  Level Salt Lake Center
Thu 02:39:48 PM 44.0942 -111.3717 270° West 395 455 34,000  Level Salt Lake Center
Thu 02:40:49 PM 44.0933 -111.5200 270° West 399 459 34,000  Level Salt Lake Center
Thu 02:41:51 PM 44.0922 -111.6900 270° West 393 452 34,000  Level Salt Lake Center
Thu 02:42:53 PM 44.0919 -111.8372 270° West 396 456 34,000  Level Salt Lake Center
Thu 02:43:55 PM 44.0908 -111.9811 269° West 390 449 34,000  Level Salt Lake Center
Thu 02:44:56 PM 44.0886 -112.1483 269° West 388 447 34,000  Level Salt Lake Center
Thu 02:45:58 PM 44.0800 -112.2900 265° West 385 443 34,000  Level Salt Lake Center
Thu 02:47:00 PM 44.0606 -112.4514 261° West 380 437 34,000  Level Salt Lake Center
Thu 02:48:02 PM 44.0461 -112.5892 262° West 378 435 34,000  Level Salt Lake Center
Thu 02:49:04 PM 44.0256 -112.7494 260° West 378 435 34,000  Level Salt Lake Center
Thu 02:50:06 PM 44.0092 -112.8872 261° West 378 435 34,000  Level Salt Lake Center
Thu 02:51:07 PM 43.9900 -113.0483 261° West 379 436 34,000  Level Salt Lake Center
Thu 02:52:09 PM 43.9722 -113.1900 260° West 386 444 34,000  Level Salt Lake Center
Thu 02:53:11 PM 43.9558 -113.3344 261° West 394 453 34,000  Level Salt Lake Center
Thu 02:54:13 PM 43.9336 -113.5056 260° West 402 463 34,000  Level Salt Lake Center
Thu 02:55:15 PM 43.9164 -113.6561 261° West 410 472 34,000  Level Salt Lake Center
Thu 02:56:16 PM 43.8917 -113.8325 259° West 416 479 34,000 -390 Level Salt Lake Center
Thu 02:57:18 PM 43.8725 -113.9939 261° West 422 486 33,200 -871 Descending Salt Lake Center
Thu 02:58:20 PM 43.8531 -114.1456 260° West 418 481 32,200 -1,016 Descending Salt Lake Center
Thu 02:59:22 PM 43.8317 -114.3169 260° West 402 463 31,100 -968 Descending Salt Lake Center
Thu 03:00:24 PM 43.8125 -114.4600 260° West 393 452 30,200 -1,403 Descending Salt Lake Center
Thu 03:01:26 PM 43.7892 -114.6281 259° West 397 457 28,200 -2,000 Descending Salt Lake Center
Thu 03:02:27 PM 43.7694 -114.7725 259° West 398 458 26,100 -2,244 Descending Salt Lake Center
Thu 03:03:29 PM 43.7464 -114.9372 259° West 389 448 23,600 -2,177 Descending Salt Lake Center
Thu 03:04:31 PM 43.7269 -115.0769 259° West 385 443 21,600 -1,984 Descending Salt Lake Center
Thu 03:05:33 PM 43.7089 -115.2164 260° West 384 442 19,500 -2,226 Descending Salt Lake Center
Thu 03:06:35 PM 43.6864 -115.3725 259° West 371 427 17,000 -2,341 Descending Salt Lake Center
Thu 03:07:36 PM 43.6675 -115.5097 259° West 364 419 14,700 -2,000 Descending Salt Lake Center
Thu 03:08:38 PM 43.6425 -115.6453 256° West 349 402 12,900 -1,742 Descending Salt Lake Center
Thu 03:09:40 PM 43.5908 -115.7547 237° Southwest 327 376 11,100 -1,694 Descending Salt Lake Center
Thu 03:10:42 PM 43.5442 -115.8561 238° Southwest 304 350 9,400 -1,452 Descending Salt Lake Center
Thu 03:11:44 PM 43.5064 -115.9347 236° Southwest 260 299 8,100 -1,415 Descending Salt Lake Center
Thu 03:12:45 PM 43.4947 -116.0144 259° West 212 244 6,500 -1,659 Descending Salt Lake Center
Thu 03:13:47 PM 43.5156 -116.0783 294° West 179 206 4,700 -1,742 Descending Salt Lake Center

Login

Don't have an account? Register now (free) for customized features, flight alerts, and more!